Time;durP1;ratioP1;P1;durP2;ratioP2;P2;SDS_P1;SDS_P2;PMS_P1;PMS_P2;Temp;Humidity;BMP_temperature;BMP_pressure;BME280_temperature;BME280_humidity;BME280_pressure;Samples;Min_cycle;Max_cycle;Signal;HPM_P1;HPM_P2
2020/12/06 00:01:27;;;;;;;13.17;6.50;;;;;;;0.74;100.00;97812.77;1801540;79;21331;-74
2020/12/06 00:03:54;;;;;;;13.80;6.40;;;;;;;0.75;100.00;97818.77;1800796;79;21307;-73
2020/12/06 00:06:21;;;;;;;13.87;7.00;;;;;;;0.74;100.00;97805.55;1800195;79;21131;-74
2020/12/06 00:08:51;;;;;;;11.15;6.22;;;;;;;0.70;100.00;97839.84;1800232;79;21170;-74
2020/12/06 00:11:19;;;;;;;13.32;6.55;;;;;;;0.65;100.00;97816.95;1800120;79;21437;-73
2020/12/06 00:13:46;;;;;;;12.13;6.78;;;;;;;0.60;100.00;97819.30;1800077;79;21067;-73
2020/12/06 00:16:14;;;;;;;12.73;7.05;;;;;;;0.56;100.00;97843.70;1800119;79;20945;-74
2020/12/06 00:18:45;;;;;;;12.13;6.67;;;;;;;0.56;100.00;97821.13;1800104;79;20973;-74
2020/12/06 00:21:19;;;;;;;14.93;6.70;;;;;;;0.59;100.00;97838.95;1800060;79;21519;-74
2020/12/06 00:23:48;;;;;;;15.08;7.05;;;;;;;0.61;100.00;97834.60;1800153;79;21040;-74
2020/12/06 00:26:26;;;;;;;12.75;7.05;;;;;;;0.62;100.00;97829.03;1800096;79;20933;-74
2020/12/06 00:28:54;;;;;;;11.93;6.83;;;;;;;0.58;100.00;97830.88;1799922;79;21045;-74
2020/12/06 00:31:21;;;;;;;13.23;6.50;;;;;;;0.56;100.00;97827.52;1799829;79;21008;-74
2020/12/06 00:33:48;;;;;;;14.93;6.97;;;;;;;0.53;100.00;97839.16;1800196;79;21300;-74
2020/12/06 00:36:15;;;;;;;15.97;6.90;;;;;;;0.52;100.00;97851.11;1800108;79;21097;-74
2020/12/06 00:38:42;;;;;;;11.53;5.70;;;;;;;0.51;100.00;97851.17;1800147;79;20989;-73
2020/12/06 00:41:11;;;;;;;17.03;8.03;;;;;;;0.50;100.00;97846.95;1800215;79;21126;-73
2020/12/06 00:43:39;;;;;;;13.13;6.90;;;;;;;0.51;100.00;97843.50;1800232;79;21295;-73
2020/12/06 00:46:06;;;;;;;10.58;5.50;;;;;;;0.51;100.00;97851.17;1800302;79;21050;-73
2020/12/06 00:48:33;;;;;;;10.53;6.47;;;;;;;0.51;100.00;97857.58;1800231;79;20922;-75
2020/12/06 00:51:02;;;;;;;14.25;7.25;;;;;;;0.50;100.00;97845.22;1800232;79;21086;-73
2020/12/06 00:53:30;;;;;;;11.43;6.40;;;;;;;0.51;100.00;97853.73;1800266;79;21012;-72
2020/12/06 00:55:58;;;;;;;14.15;7.03;;;;;;;0.53;100.00;97853.23;1800222;79;21162;-73
2020/12/06 00:58:25;;;;;;;14.83;7.35;;;;;;;0.54;100.00;97844.66;1800308;79;21063;-73
2020/12/06 01:00:52;;;;;;;13.22;6.65;;;;;;;0.53;100.00;97836.15;1800260;79;21392;-73
2020/12/06 01:03:20;;;;;;;11.83;5.97;;;;;;;0.46;100.00;97842.36;1800067;79;21422;-73
2020/12/06 01:05:47;;;;;;;10.00;5.50;;;;;;;0.37;100.00;97823.94;1800267;79;21339;-73
2020/12/06 01:08:14;;;;;;;10.43;6.00;;;;;;;0.30;100.00;97837.83;1800243;79;21327;-73
2020/12/06 01:10:43;;;;;;;14.17;7.70;;;;;;;0.28;100.00;97830.21;1800217;79;20921;-73
2020/12/06 01:13:10;;;;;;;13.87;6.93;;;;;;;0.29;100.00;97822.92;1800238;79;21248;-73
2020/12/06 01:15:37;;;;;;;13.30;6.40;;;;;;;0.31;100.00;97836.94;1800151;79;20945;-73
2020/12/06 01:18:04;;;;;;;16.20;8.17;;;;;;;0.32;100.00;97847.55;1800329;79;20921;-73
2020/12/06 01:20:31;;;;;;;10.60;5.80;;;;;;;0.32;100.00;97833.48;1800293;79;20938;-73
2020/12/06 01:22:58;;;;;;;9.13;5.40;;;;;;;0.32;100.00;97826.64;1800347;79;21048;-73
2020/12/06 01:25:26;;;;;;;10.88;5.85;;;;;;;0.27;100.00;97831.10;1800364;79;20939;-73
2020/12/06 01:27:53;;;;;;;10.82;6.30;;;;;;;0.20;100.00;97834.30;1800182;79;20937;-72
2020/12/06 01:30:20;;;;;;;10.93;5.93;;;;;;;0.18;100.00;97827.58;1800214;79;21351;-73
2020/12/06 01:32:47;;;;;;;11.50;6.10;;;;;;;0.18;100.00;97841.20;1800237;79;20937;-73
2020/12/06 01:35:14;;;;;;;9.38;5.60;;;;;;;0.16;100.00;97840.39;1800241;79;21312;-72
2020/12/06 01:37:42;;;;;;;11.68;6.65;;;;;;;0.15;100.00;97837.45;1800230;79;21641;-73
2020/12/06 01:40:09;;;;;;;9.47;5.37;;;;;;;0.15;100.00;97848.12;1800166;79;21031;-73
2020/12/06 01:42:36;;;;;;;9.53;5.73;;;;;;;0.17;100.00;97885.58;1800219;79;20937;-72
2020/12/06 01:45:03;;;;;;;10.82;5.60;;;;;;;0.15;100.00;97850.68;1800307;79;21012;-73
2020/12/06 01:47:30;;;;;;;12.23;6.37;;;;;;;0.13;100.00;97849.45;1800257;79;20981;-73
2020/12/06 01:49:57;;;;;;;12.00;6.58;;;;;;;0.12;100.00;97847.80;1800353;79;20937;-73
2020/12/06 01:52:26;;;;;;;9.70;5.22;;;;;;;0.14;100.00;97847.29;1800147;79;20938;-73
2020/12/06 01:54:54;;;;;;;11.68;5.83;;;;;;;0.11;100.00;97847.41;1800226;79;21059;-73
2020/12/06 01:57:21;;;;;;;9.50;5.30;;;;;;;0.10;100.00;97840.62;1800240;79;21020;-73
2020/12/06 01:59:48;;;;;;;10.50;5.97;;;;;;;0.07;100.00;97856.49;1800263;79;20929;-73
2020/12/06 02:02:16;;;;;;;11.13;5.20;;;;;;;0.03;100.00;97837.88;1800198;79;21868;-73
2020/12/06 02:04:45;;;;;;;10.07;5.93;;;;;;;0.01;100.00;97847.77;1801132;79;20929;-73
2020/12/06 02:07:12;;;;;;;10.70;6.07;;;;;;;-0.02;100.00;97844.84;1801933;79;21379;-73
2020/12/06 02:09:43;;;;;;;9.17;5.17;;;;;;;-0.04;100.00;97839.78;1801852;79;20993;-73
2020/12/06 02:12:09;;;;;;;11.90;6.43;;;;;;;-0.07;100.00;97839.90;1801919;79;21126;-73
2020/12/06 02:14:36;;;;;;;10.70;6.10;;;;;;;-0.07;100.00;97842.90;1801902;79;22066;-76
2020/12/06 02:17:04;;;;;;;12.17;5.60;;;;;;;-0.08;100.00;97835.67;1801862;79;20941;-77
2020/12/06 02:19:31;;;;;;;11.70;5.87;;;;;;;-0.09;100.00;97848.48;1801901;79;20993;-77
2020/12/06 02:21:59;;;;;;;11.22;6.33;;;;;;;-0.11;100.00;97843.42;1801832;79;21060;-77
2020/12/06 02:24:26;;;;;;;10.27;5.80;;;;;;;-0.11;100.00;97840.03;1801886;79;21323;-78
2020/12/06 02:26:53;;;;;;;10.40;5.47;;;;;;;-0.11;100.00;97847.70;1802001;79;22117;-76
2020/12/06 02:29:20;;;;;;;12.37;5.93;;;;;;;-0.12;100.00;97845.59;1801832;79;20988;-76
2020/12/06 02:31:47;;;;;;;13.90;7.50;;;;;;;-0.12;100.00;97840.92;1801924;79;20917;-77
2020/12/06 02:34:15;;;;;;;12.40;6.47;;;;;;;-0.15;100.00;97844.87;1801874;79;20941;-77
2020/12/06 02:36:42;;;;;;;12.03;6.73;;;;;;;-0.16;100.00;97836.81;1801901;79;21379;-78
2020/12/06 02:39:11;;;;;;;12.27;6.20;;;;;;;-0.17;100.00;97850.45;1801912;79;21200;-78
2020/12/06 02:41:43;;;;;;;11.93;6.60;;;;;;;-0.18;100.00;97848.34;1801784;79;21182;-78
2020/12/06 02:44:12;;;;;;;11.00;6.22;;;;;;;-0.19;100.00;97852.23;1802111;79;20973;-77
2020/12/06 02:46:40;;;;;;;11.45;5.72;;;;;;;-0.21;100.00;97844.61;1801880;79;21393;-77
2020/12/06 02:49:08;;;;;;;12.87;6.43;;;;;;;-0.22;100.00;97844.22;1801903;79;21311;-77
2020/12/06 02:51:35;;;;;;;11.93;6.33;;;;;;;-0.23;100.00;97857.06;1801874;79;21424;-77
2020/12/06 02:54:03;;;;;;;11.87;5.30;;;;;;;-0.26;100.00;97847.75;1801817;79;21095;-77
2020/12/06 02:56:31;;;;;;;14.50;6.50;;;;;;;-0.27;100.00;97888.25;1801934;79;21131;-77
2020/12/06 02:58:58;;;;;;;13.67;7.17;;;;;;;-0.27;100.00;97875.91;1801875;79;20932;-77
2020/12/06 03:01:32;;;;;;;12.20;6.37;;;;;;;-0.30;100.00;97871.30;1801885;79;20932;-78
2020/12/06 03:04:00;;;;;;;12.67;6.03;;;;;;;-0.34;100.00;97869.70;1801393;79;21361;-77
2020/12/06 03:06:27;;;;;;;12.10;5.93;;;;;;;-0.38;100.00;97863.03;1800159;79;21331;-77
2020/12/06 03:08:55;;;;;;;14.17;6.20;;;;;;;-0.39;100.00;97873.31;1800163;79;21067;-78
2020/12/06 03:11:25;;;;;;;13.00;6.57;;;;;;;-0.41;100.00;97877.20;1800142;79;20937;-77
2020/12/06 03:13:52;;;;;;;12.53;6.42;;;;;;;-0.40;100.00;97881.42;1800201;79;21495;-77
2020/12/06 03:16:20;;;;;;;12.63;5.50;;;;;;;-0.38;100.00;97882.20;1800139;79;21186;-77
2020/12/06 03:18:47;;;;;;;11.30;5.67;;;;;;;-0.35;100.00;97882.09;1800087;79;20890;-77
2020/12/06 03:21:14;;;;;;;13.50;6.60;;;;;;;-0.34;100.00;97885.48;1800270;79;20929;-77
2020/12/06 03:23:42;;;;;;;12.90;6.13;;;;;;;-0.37;100.00;97878.76;1800109;79;21009;-77
2020/12/06 03:26:09;;;;;;;12.10;5.93;;;;;;;-0.38;100.00;97874.53;1800160;79;21019;-78
2020/12/06 03:28:36;;;;;;;12.53;5.70;;;;;;;-0.41;100.00;97870.81;1800230;79;21183;-77
2020/12/06 03:31:03;;;;;;;10.30;6.10;;;;;;;-0.44;100.00;97888.77;1800142;79;21051;-78
2020/12/06 03:33:31;;;;;;;12.67;5.77;;;;;;;-0.49;100.00;97882.14;1800194;79;20977;-77
2020/12/06 03:35:58;;;;;;;12.40;6.10;;;;;;;-0.53;100.00;97869.89;1800199;79;21158;-78
2020/12/06 03:38:26;;;;;;;12.53;6.17;;;;;;;-0.57;100.00;97886.20;1800159;79;20957;-77
2020/12/06 03:40:53;;;;;;;45.40;20.57;;;;;;;-0.57;100.00;97879.82;1800222;79;22386;-78
2020/12/06 03:43:20;;;;;;;16.60;8.97;;;;;;;-0.59;100.00;97881.12;1800042;79;21119;-77
2020/12/06 03:45:48;;;;;;;17.80;9.63;;;;;;;-0.61;100.00;97884.16;1800199;79;20988;-77
2020/12/06 03:48:15;;;;;;;18.83;10.93;;;;;;;-0.63;100.00;97891.05;1800215;79;21045;-76
2020/12/06 03:50:43;;;;;;;17.13;9.33;;;;;;;-0.64;100.00;97887.27;1800184;79;21111;-77
2020/12/06 03:53:11;;;;;;;25.50;15.47;;;;;;;-0.64;100.00;97883.44;1800098;79;22227;-77
2020/12/06 03:55:39;;;;;;;15.20;7.60;;;;;;;-0.64;100.00;97892.38;1800104;79;21163;-77
2020/12/06 03:58:09;;;;;;;15.87;8.57;;;;;;;-0.62;100.00;97882.94;1800090;79;21067;-78
2020/12/06 04:00:36;;;;;;;14.10;6.77;;;;;;;-0.60;100.00;97900.33;1800110;79;21317;-79
2020/12/06 04:03:03;;;;;;;15.50;7.40;;;;;;;-0.58;100.00;97898.56;1800125;79;21028;-78
2020/12/06 04:05:31;;;;;;;16.83;7.87;;;;;;;-0.60;100.00;97893.50;1800036;79;21378;-78
2020/12/06 04:07:58;;;;;;;16.27;7.50;;;;;;;-0.63;100.00;97888.49;1800159;79;20925;-78
2020/12/06 04:10:28;;;;;;;18.73;8.40;;;;;;;-0.65;100.00;97887.71;1800108;79;20937;-77
2020/12/06 04:12:55;;;;;;;18.17;8.70;;;;;;;-0.66;100.00;97889.87;1800100;79;21083;-78
2020/12/06 04:15:22;;;;;;;16.17;6.87;;;;;;;-0.67;100.00;97899.67;1800204;79;20921;-78
2020/12/06 04:17:49;;;;;;;12.80;7.00;;;;;;;-0.65;100.00;97877.94;1800401;79;21489;-78
2020/12/06 04:20:16;;;;;;;15.20;6.73;;;;;;;-0.64;100.00;97880.44;1800295;79;21436;-79
2020/12/06 04:22:43;;;;;;;15.33;7.93;;;;;;;-0.61;100.00;97867.56;1800251;79;21355;-78
2020/12/06 04:25:10;;;;;;;13.10;7.12;;;;;;;-0.58;100.00;97887.92;1800263;79;21127;-78
2020/12/06 04:27:38;;;;;;;18.27;7.93;;;;;;;-0.58;100.00;97867.91;1800373;79;21040;-78
2020/12/06 04:30:05;;;;;;;14.87;7.00;;;;;;;-0.62;100.00;97887.61;1800337;79;21259;-77
2020/12/06 04:32:32;;;;;;;16.30;7.77;;;;;;;-0.65;100.00;97879.21;1800280;79;21347;-78
2020/12/06 04:34:59;;;;;;;16.20;6.93;;;;;;;-0.68;100.00;97892.05;1800332;79;21426;-79
2020/12/06 04:37:27;;;;;;;16.77;7.57;;;;;;;-0.69;100.00;97903.99;1800266;79;21307;-79
2020/12/06 04:39:55;;;;;;;14.07;6.53;;;;;;;-0.68;100.00;97896.72;1800267;79;20928;-77
2020/12/06 04:42:24;;;;;;;15.00;7.90;;;;;;;-0.68;100.00;97913.77;1800338;79;21400;-77
2020/12/06 04:44:51;;;;;;;18.70;9.30;;;;;;;-0.69;100.00;97888.66;1800210;79;20976;-77
2020/12/06 04:47:23;;;;;;;14.67;7.20;;;;;;;-0.69;100.00;97906.98;1800301;79;20929;-77
2020/12/06 04:49:52;;;;;;;17.43;7.23;;;;;;;-0.66;100.00;97905.64;1800284;79;21020;-78
2020/12/06 04:52:22;;;;;;;15.63;7.13;;;;;;;-0.64;100.00;97898.77;1800319;79;21198;-75
2020/12/06 04:54:58;;;;;;;16.97;8.67;;;;;;;-0.61;100.00;97902.49;1800248;79;20965;-77
2020/12/06 04:57:30;;;;;;;18.73;10.13;;;;;;;-0.58;100.00;97911.33;1799884;79;21070;-78
2020/12/06 05:00:01;;;;;;;15.23;7.77;;;;;;;-0.55;100.00;97904.87;1800378;79;20917;-77
2020/12/06 05:02:29;;;;;;;17.57;9.23;;;;;;;-0.54;100.00;97886.11;1800356;79;20988;-77
2020/12/06 05:04:56;;;;;;;18.20;9.03;;;;;;;-0.55;100.00;97909.98;1800185;79;21028;-78
2020/12/06 05:07:24;;;;;;;16.77;7.97;;;;;;;-0.55;100.00;97902.32;1800277;79;21384;-78
2020/12/06 05:09:51;;;;;;;17.27;8.07;;;;;;;-0.57;100.00;97892.16;1800224;79;20973;-78
2020/12/06 05:12:18;;;;;;;13.40;7.27;;;;;;;-0.57;100.00;97888.77;1800243;79;21071;-78
2020/12/06 05:14:45;;;;;;;16.70;7.83;;;;;;;-0.54;100.00;97893.77;1800245;79;21062;-78
2020/12/06 05:17:12;;;;;;;18.53;8.20;;;;;;;-0.53;100.00;97881.38;1800346;79;21008;-77
2020/12/06 05:19:39;;;;;;;16.90;7.67;;;;;;;-0.54;100.00;97891.66;1799743;79;21136;-77
2020/12/06 05:22:08;;;;;;;17.93;9.23;;;;;;;-0.55;100.00;97895.09;1799705;79;20929;-78
2020/12/06 05:24:35;;;;;;;19.57;8.48;;;;;;;-0.54;100.00;97906.55;1800281;79;20913;-77
2020/12/06 05:27:02;;;;;;;18.73;9.40;;;;;;;-0.51;100.00;97899.22;1773575;79;21104;-78
2020/12/06 05:29:30;;;;;;;23.67;15.17;;;;;;;-0.51;100.00;97911.55;1800375;79;21016;-77
2020/12/06 05:32:01;;;;;;;15.33;7.77;;;;;;;-0.52;100.00;97908.60;1800230;79;21417;-78
2020/12/06 05:34:29;;;;;;;15.33;8.07;;;;;;;-0.56;100.00;97905.76;1774051;79;21083;-77
2020/12/06 05:36:56;;;;;;;15.00;7.80;;;;;;;-0.59;100.00;97913.05;1800270;79;20949;-78
2020/12/06 05:39:23;;;;;;;16.10;7.97;;;;;;;-0.61;100.00;97924.20;1800205;79;21012;-78
2020/12/06 05:41:51;;;;;;;14.63;7.63;;;;;;;-0.61;100.00;97920.37;1800284;79;21461;-77
2020/12/06 05:44:21;;;;;;;14.97;8.17;;;;;;;-0.61;100.00;97928.04;1773728;79;21839;-77
2020/12/06 05:46:50;;;;;;;15.15;6.92;;;;;;;-0.63;100.00;97927.25;1800347;79;21327;-77
2020/12/06 05:49:23;;;;;;;18.60;9.80;;;;;;;-0.64;100.00;97949.85;1800270;79;20878;-77
2020/12/06 05:51:53;;;;;;;15.40;8.23;;;;;;;-0.69;100.00;97919.31;1800357;79;21009;-77
2020/12/06 05:54:23;;;;;;;17.47;8.13;;;;;;;-0.71;100.00;97928.75;1800226;79;21469;-77
2020/12/06 05:56:52;;;;;;;13.00;6.53;;;;;;;-0.69;100.00;97923.59;1800197;79;21435;-77
2020/12/06 05:59:22;;;;;;;15.03;7.63;;;;;;;-0.70;100.00;97914.26;1800315;79;21004;-78
2020/12/06 06:01:52;;;;;;;16.97;8.10;;;;;;;-0.70;100.00;97928.31;1800230;79;21371;-77
2020/12/06 06:04:21;;;;;;;14.33;7.00;;;;;;;-0.69;100.00;97915.92;1800062;79;21032;-77
2020/12/06 06:06:51;;;;;;;16.50;8.33;;;;;;;-0.70;100.00;97916.81;1799907;79;21135;-80
2020/12/06 06:09:19;;;;;;;13.83;6.47;;;;;;;-0.74;100.00;97916.52;1799910;79;21458;-78
2020/12/06 06:12:16;;;;;;;13.10;7.30;;;;;;;-0.76;100.00;97928.03;1800196;79;20933;-79
2020/12/06 06:14:44;;;;;;;14.77;6.97;;;;;;;-0.74;100.00;97922.91;1800230;79;20921;-78
2020/12/06 06:17:11;;;;;;;21.67;7.83;;;;;;;-0.75;100.00;97934.81;1800278;79;21118;-78
2020/12/06 06:19:38;;;;;;;14.60;8.03;;;;;;;-0.74;100.00;97922.91;1800334;79;20929;-79
2020/12/06 06:22:06;;;;;;;12.70;6.83;;;;;;;-0.75;100.00;97927.59;1800263;79;20890;-78
2020/12/06 06:24:33;;;;;;;12.97;5.90;;;;;;;-0.78;100.00;97914.92;1800197;79;20976;-79
2020/12/06 06:27:00;;;;;;;12.97;6.53;;;;;;;-0.80;100.00;97927.73;1800209;79;20981;-79
2020/12/06 06:29:27;;;;;;;11.30;5.83;;;;;;;-0.79;100.00;97927.30;1773572;79;20913;-79
2020/12/06 06:31:54;;;;;;;13.13;6.13;;;;;;;-0.75;100.00;97927.15;1799424;79;20915;-79
2020/12/06 06:34:23;;;;;;;10.77;6.17;;;;;;;-0.69;100.00;97923.59;1800176;79;21193;-79
2020/12/06 06:36:51;;;;;;;14.30;6.80;;;;;;;-0.68;100.00;97920.98;1800130;79;21335;-79
2020/12/06 06:39:21;;;;;;;19.67;7.90;;;;;;;-0.70;100.00;97927.03;1800184;79;20925;-77
2020/12/06 06:42:11;;;;;;;12.53;6.33;;;;;;;-0.70;100.00;97927.03;1800203;79;20941;-79
2020/12/06 06:44:44;;;;;;;13.53;6.43;;;;;;;-0.69;100.00;97932.09;1800124;79;21446;-78
2020/12/06 06:47:13;;;;;;;13.97;7.27;;;;;;;-0.67;100.00;97920.55;1800225;79;21271;-78
2020/12/06 06:49:53;;;;;;;12.43;6.13;;;;;;;-0.65;100.00;97927.30;1800121;79;21028;-77
2020/12/06 06:52:21;;;;;;;15.07;8.30;;;;;;;-0.62;100.00;97934.87;1800186;79;21390;-78
2020/12/06 06:54:53;;;;;;;14.97;7.07;;;;;;;-0.61;100.00;97930.59;1773752;79;20921;-79
2020/12/06 06:57:23;;;;;;;12.78;6.65;;;;;;;-0.61;100.00;97928.87;1800294;79;21135;-78
2020/12/06 06:59:52;;;;;;;14.07;7.10;;;;;;;-0.64;100.00;97933.25;1800290;78;21441;-78
2020/12/06 07:02:35;;;;;;;14.23;7.63;;;;;;;-0.66;100.00;97928.63;1827160;77;21005;-78
2020/12/06 07:05:14;;;;;;;13.87;7.17;;;;;;;-0.67;100.00;97937.15;1833313;77;20863;-79
2020/12/06 07:07:49;;;;;;;16.57;8.03;;;;;;;-0.70;100.00;97921.92;1827238;78;21354;-78
2020/12/06 07:10:22;;;;;;;15.77;8.17;;;;;;;-0.74;100.00;97928.02;1824436;78;21040;-79
2020/12/06 07:12:56;;;;;;;15.47;7.90;;;;;;;-0.71;100.00;97940.69;1850589;77;21113;-78
2020/12/06 07:15:25;;;;;;;16.62;7.97;;;;;;;-0.71;100.00;97919.81;1822591;78;26513;-78
2020/12/06 07:17:53;;;;;;;18.23;7.40;;;;;;;-0.73;100.00;97919.02;1824155;78;20957;-79
2020/12/06 07:20:21;;;;;;;16.37;7.63;;;;;;;-0.72;100.00;97921.97;1850519;77;21374;-78
2020/12/06 07:22:49;;;;;;;17.87;8.47;;;;;;;-0.71;100.00;97935.13;1822396;78;20919;-78
2020/12/06 07:25:17;;;;;;;16.73;8.97;;;;;;;-0.71;100.00;97934.30;1824270;78;21022;-77
2020/12/06 07:27:44;;;;;;;19.37;8.17;;;;;;;-0.71;100.00;97946.62;1850560;77;20942;-79
2020/12/06 07:30:16;;;;;;;19.90;10.57;;;;;;;-0.72;100.00;97939.85;1822354;78;21006;-78
2020/12/06 07:32:43;;;;;;;19.73;9.73;;;;;;;-0.71;100.00;97935.58;1824174;78;21139;-79
2020/12/06 07:35:13;;;;;;;21.60;11.60;;;;;;;-0.68;100.00;97940.59;1835880;78;20901;-78
2020/12/06 07:37:41;;;;;;;23.30;14.13;;;;;;;-0.67;100.00;97925.66;1835763;78;21469;-78
2020/12/06 07:40:10;;;;;;;19.93;11.03;;;;;;;-0.67;100.00;97937.15;1835809;78;21032;-78
2020/12/06 07:42:37;;;;;;;17.90;10.30;;;;;;;-0.67;100.00;97935.87;1850166;77;21375;-79
2020/12/06 07:45:06;;;;;;;21.40;10.43;;;;;;;-0.68;100.00;97936.31;1835804;78;20976;-78
2020/12/06 07:47:33;;;;;;;18.90;10.07;;;;;;;-0.68;100.00;97950.36;1835818;78;20988;-78
2020/12/06 07:50:00;;;;;;;19.20;9.53;;;;;;;-0.66;100.00;97942.68;1835685;78;21023;-77
2020/12/06 07:52:35;;;;;;;20.13;10.50;;;;;;;-0.67;100.00;97921.82;1855881;77;21056;-78
2020/12/06 07:55:08;;;;;;;20.03;11.23;;;;;;;-0.66;100.00;97920.53;1822981;78;21406;-73
2020/12/06 07:57:44;;;;;;;20.57;10.45;;;;;;;-0.62;100.00;97925.09;1847280;77;20913;-74
2020/12/06 08:00:18;;;;;;;19.97;11.83;;;;;;;-0.57;100.00;97927.08;1825570;77;21031;-73
2020/12/06 08:03:15;;;;;;;20.37;10.30;;;;;;;-0.55;100.00;97934.25;1847712;77;39876;-74
2020/12/06 08:05:43;;;;;;;23.97;12.27;;;;;;;-0.55;100.00;97919.38;1754546;81;20927;-73
2020/12/06 08:08:14;;;;;;;20.50;10.67;;;;;;;-0.51;100.00;97938.82;1783606;80;20937;-77
2020/12/06 08:10:41;;;;;;;23.50;12.63;;;;;;;-0.50;100.00;97938.77;1727275;81;21009;-74
2020/12/06 08:13:11;;;;;;;18.83;11.03;;;;;;;-0.47;100.00;97924.65;1728512;81;21580;-74
2020/12/06 08:15:38;;;;;;;19.47;12.13;;;;;;;-0.47;100.00;97937.87;1734566;82;21198;-73
2020/12/06 08:18:15;;;;;;;21.23;11.77;;;;;;;-0.47;100.00;97945.09;1739777;81;21067;-73
2020/12/06 08:20:53;;;;;;;22.40;11.83;;;;;;;-0.44;100.00;97943.70;1739147;81;21166;-73
2020/12/06 08:23:36;;;;;;;24.07;12.07;;;;;;;-0.43;100.00;97938.98;1739057;82;20917;-73
2020/12/06 08:26:04;;;;;;;20.80;11.53;;;;;;;-0.42;100.00;97938.55;1739809;82;20929;-73
2020/12/06 08:28:31;;;;;;;23.07;11.60;;;;;;;-0.40;100.00;97913.36;1739673;82;21210;-74
2020/12/06 08:30:58;;;;;;;21.43;12.50;;;;;;;-0.35;100.00;97943.87;1740762;79;21438;-74
2020/12/06 08:33:28;;;;;;;22.30;12.33;;;;;;;-0.33;100.00;97949.36;1741581;79;21119;-74
2020/12/06 08:36:00;;;;;;;21.07;12.90;;;;;;;-0.32;100.00;97938.25;1739621;82;21028;-74
2020/12/06 08:38:33;;;;;;;25.20;12.50;;;;;;;-0.33;100.00;97937.02;1739001;82;21131;-74
2020/12/06 08:41:08;;;;;;;23.27;12.10;;;;;;;-0.37;100.00;97942.65;1739880;81;21386;-74
2020/12/06 08:43:52;;;;;;;23.47;13.07;;;;;;;-0.38;100.00;97946.53;1768362;81;21438;-74
2020/12/06 08:46:22;;;;;;;20.47;11.07;;;;;;;-0.38;100.00;97947.38;1770145;81;20964;-75
2020/12/06 08:48:51;;;;;;;21.63;11.37;;;;;;;-0.37;100.00;97946.92;1770129;81;20997;-75
2020/12/06 08:51:37;;;;;;;23.03;13.17;;;;;;;-0.36;100.00;97949.88;1769905;81;21001;-75
2020/12/06 08:54:06;;;;;;;21.87;11.90;;;;;;;-0.35;100.00;97929.38;1770213;81;21383;-74
2020/12/06 08:56:43;;;;;;;27.80;13.77;;;;;;;-0.35;100.00;97925.98;1769996;81;21004;-75
2020/12/06 08:59:17;;;;;;;24.37;13.30;;;;;;;-0.35;100.00;97934.94;1770111;80;21068;-74
2020/12/06 09:01:50;;;;;;;22.50;12.47;;;;;;;-0.34;100.00;97935.33;1770041;81;21771;-80
2020/12/06 09:04:17;;;;;;;23.07;13.83;;;;;;;-0.31;100.00;97940.36;1769245;81;20997;-80
2020/12/06 09:06:44;;;;;;;23.43;13.80;;;;;;;-0.31;100.00;97937.80;1766534;81;21200;-78
2020/12/06 09:09:12;;;;;;;23.13;14.87;;;;;;;-0.32;100.00;97938.25;1766456;81;20940;-78
2020/12/06 09:11:39;;;;;;;22.20;11.83;;;;;;;-0.33;100.00;97923.80;1766491;80;21000;-77
2020/12/06 09:14:06;;;;;;;19.83;11.47;;;;;;;-0.35;100.00;97931.94;1766567;81;21138;-79
2020/12/06 09:16:34;;;;;;;23.73;12.47;;;;;;;-0.33;100.00;97925.52;1766572;81;20909;-78
2020/12/06 09:19:02;;;;;;;23.60;11.37;;;;;;;-0.31;100.00;97915.64;1766558;80;22050;-77
2020/12/06 09:21:29;;;;;;;21.77;12.33;;;;;;;-0.33;100.00;97896.97;1766472;81;20940;-78
2020/12/06 09:23:56;;;;;;;21.97;10.77;;;;;;;-0.32;100.00;97904.19;1751064;81;21018;-78
2020/12/06 09:26:24;;;;;;;20.80;10.57;;;;;;;-0.32;100.00;97898.64;1765227;80;21063;-77
2020/12/06 09:28:51;;;;;;;21.43;12.27;;;;;;;-0.29;100.00;97905.36;1766489;81;20909;-77
2020/12/06 09:31:21;;;;;;;20.67;10.87;;;;;;;-0.29;100.00;97892.58;1766481;81;21271;-78
2020/12/06 09:33:48;;;;;;;23.25;13.43;;;;;;;-0.27;100.00;97897.64;1766384;81;21011;-80
2020/12/06 09:36:16;;;;;;;25.50;15.20;;;;;;;-0.26;100.00;97895.03;1766598;81;21012;-80
2020/12/06 09:38:43;;;;;;;21.00;11.00;;;;;;;-0.24;100.00;97902.23;1766491;81;20929;-79
2020/12/06 09:41:15;;;;;;;24.07;14.93;;;;;;;-0.23;100.00;97902.63;1766521;81;20925;-77
2020/12/06 09:43:40;;;;;;;26.40;16.77;;;;;;;-0.26;100.00;97886.53;1787788;80;21879;-79
2020/12/06 09:46:11;;;;;;;28.73;18.63;;;;;;;-0.24;100.00;97907.80;1754008;81;21379;-79
2020/12/06 09:48:38;;;;;;;27.27;16.07;;;;;;;-0.23;100.00;97897.95;1788481;80;21328;-78
2020/12/06 09:51:07;;;;;;;27.20;16.60;;;;;;;-0.22;99.98;97900.91;1754000;81;21422;-77
2020/12/06 09:53:34;;;;;;;24.10;13.67;;;;;;;-0.22;99.89;97891.95;1760823;80;21323;-79
2020/12/06 09:56:02;;;;;;;22.83;12.13;;;;;;;-0.22;99.95;97909.41;1754877;81;21158;-74
2020/12/06 09:58:29;;;;;;;18.13;9.97;;;;;;;-0.19;99.89;97903.35;1788428;80;20997;-74
2020/12/06 10:00:57;;;;;;;19.23;10.97;;;;;;;-0.23;99.75;97907.73;1788436;80;21363;-74
2020/12/06 10:03:28;;;;;;;19.17;9.10;;;;;;;-0.23;99.83;97892.84;1788465;80;21021;-74
2020/12/06 10:05:55;;;;;;;31.40;19.13;;;;;;;-0.21;99.82;97901.30;1787186;79;21541;-74
2020/12/06 10:08:24;;;;;;;26.82;15.83;;;;;;;-0.16;99.82;97911.78;1776055;78;21629;-74
2020/12/06 10:10:53;;;;;;;29.25;19.32;;;;;;;-0.13;99.67;97914.23;1757311;80;20933;-73
2020/12/06 10:13:20;;;;;;;22.22;11.43;;;;;;;-0.09;99.83;97903.45;1757277;81;21028;-73
2020/12/06 10:15:47;;;;;;;25.62;14.87;;;;;;;-0.09;99.52;97897.89;1756611;81;20994;-74
2020/12/06 10:18:14;;;;;;;22.27;12.50;;;;;;;-0.12;99.33;97903.11;1757080;81;20941;-73
2020/12/06 10:20:41;;;;;;;40.03;27.07;;;;;;;-0.13;99.43;97907.84;1766219;80;21486;-74
2020/12/06 10:23:08;;;;;;;19.42;11.45;;;;;;;-0.15;99.36;97888.33;1784869;78;21145;-74
2020/12/06 10:25:35;;;;;;;33.70;21.07;;;;;;;-0.14;99.64;97890.00;1773024;80;21028;-74
2020/12/06 10:28:02;;;;;;;30.47;18.93;;;;;;;-0.10;99.76;97887.72;1788096;79;21403;-73
2020/12/06 10:30:36;;;;;;;42.53;27.85;;;;;;;-0.10;99.54;97888.55;1788496;80;20925;-73
2020/12/06 10:33:06;;;;;;;25.57;14.13;;;;;;;-0.08;99.35;97879.59;1788318;79;21398;-75
2020/12/06 10:35:33;;;;;;;37.73;22.83;;;;;;;-0.10;99.11;97882.16;1786975;80;21201;-74
2020/12/06 10:38:00;;;;;;;38.07;21.43;;;;;;;-0.12;98.92;97883.94;1787193;80;21483;-76
2020/12/06 10:40:27;;;;;;;44.80;26.13;;;;;;;-0.15;98.75;97884.49;1787798;80;21041;-75
2020/12/06 10:42:55;;;;;;;28.87;16.30;;;;;;;-0.19;98.68;97872.67;1787101;80;21147;-74
2020/12/06 10:45:22;;;;;;;20.20;11.47;;;;;;;-0.21;98.87;97869.34;1787031;80;21244;-74
2020/12/06 10:47:49;;;;;;;14.75;7.53;;;;;;;-0.20;99.18;97871.01;1787737;80;21505;-73
2020/12/06 10:50:16;;;;;;;15.93;8.20;;;;;;;-0.21;99.17;97866.34;1788369;80;21387;-77
2020/12/06 10:52:44;;;;;;;17.53;8.10;;;;;;;-0.22;98.93;97873.63;1783804;78;20910;-78
2020/12/06 10:55:11;;;;;;;23.20;13.33;;;;;;;-0.26;98.79;97872.03;1771195;80;21128;-79
2020/12/06 10:57:38;;;;;;;16.53;8.13;;;;;;;-0.29;98.85;97872.97;1802180;78;22387;-79
2020/12/06 11:00:06;;;;;;;17.10;8.55;;;;;;;-0.27;99.08;97868.25;1780650;78;21549;-79
2020/12/06 11:02:33;;;;;;;15.67;7.60;;;;;;;-0.24;99.37;97865.17;1764527;78;21092;-78
2020/12/06 11:05:00;;;;;;;16.87;8.57;;;;;;;-0.19;99.27;97856.06;1778152;78;21136;-78
2020/12/06 11:07:28;;;;;;;22.67;11.57;;;;;;;-0.24;98.69;97860.06;1756594;80;21108;-78
2020/12/06 11:09:55;;;;;;;20.73;11.30;;;;;;;-0.29;98.88;97856.36;1767117;80;22394;-77
2020/12/06 11:12:23;;;;;;;21.10;10.20;;;;;;;-0.32;98.98;97866.69;1764429;80;21084;-78
2020/12/06 11:14:50;;;;;;;19.47;9.00;;;;;;;-0.36;99.05;97836.98;1756280;80;21072;-79
2020/12/06 11:17:17;;;;;;;21.20;10.60;;;;;;;-0.32;99.40;97845.41;1767305;80;21090;-79
2020/12/06 11:19:45;;;;;;;22.07;10.17;;;;;;;-0.30;99.38;97836.80;1764814;80;21552;-78
2020/12/06 11:22:14;;;;;;;25.90;15.25;;;;;;;-0.29;99.24;97834.63;1744775;82;22055;-79
2020/12/06 11:24:41;;;;;;;15.63;8.83;;;;;;;-0.30;98.93;97836.80;1754513;80;21440;-79